Haysville, KS (67060)

4:44 PM CDT on September 01, 2015 (GMT -0500)
North Haysville | | Change Station
CLOSE
Current Station
Personal Weather Station
Location: Haysville, KS
Elevation: 1266 ft
Nearby Weather Stations

Elev 1266 ft 37.57 °N, 97.34 °W | Updated 14 minutes ago

Clear
Clear
97.0 °F
Feels Like 102 °F
N
4.2
Wind Variable Wind from East

Today
High -- | Low -- °F
--% Chance of Precip.
Yesterday
High -- | Low -- °F
Precip. -- in
6:59 AM 7:58 PM
Waning Gibbous, 86% visible
Pressure 29.93 in
Visibility 10.0 miles
Clouds Clear
Heat Index 102 °F
Dew Point 67 °F
Humidity 38%
Rainfall 0.00 in
Snow Depth Not available.
UV 7 out of 12
Pollen 11.60 out of 12
Air Quality Not available.
Flu Activity Not available.
METAR KIAB 012058Z AUTO 15012KT 10SM CLR 33/17 A2996 RMK AO2 SLP133 T03320172 57014 $
Pressure 29.93 in
Visibility 10.0 miles
Clouds Clear
Heat Index 102 °F
Dew Point 67 °F
Humidity 38%
Rainfall 0.00 in
Snow Depth Not available.
UV 7 out of 12
Pollen 11.60 out of 12
Air Quality Not available.
Flu Activity Not available.
METAR KIAB 012058Z AUTO 15012KT 10SM CLR 33/17 A2996 RMK AO2 SLP133 T03320172 57014 $

10-Day Weather Forecast

×

Almanac

Astronomy

Sep. 01, 2015 Rise Set
Actual Time
Civil Twilight
Nautical Twilight
Astronomical Twilight
Moon
Length of Visible Light
Length of Day
Tomorrow will be .
, % of the Moon is Illuminated

Today's Extremes

State Highs State Lows

Community

WunderPhotos

Upload Photos

1,851,628 photos uploaded!

WunderBlogs® & News

Nearby

Air Quality

  Air Quality AQ Index Pollutant
Not available.

Snow Depth

Station Depth Elevation

Earthquake Activity

City Distance Mag. Time & Date
Minimum magnitude displayed is 2.5.

Coastal Water Temperatures

Place Temperature

Stations

Nearby Weather Stations

Station Location Temp. Windchill Dew Point Humidity Wind Precip. Elev Updated Type